Nain Banker — CFN596 — position and weather

sailwx.info

Track history (hours):
 
Tides and Currents Weather Stations Pressure Air Temp Water Temp Dewpoint Dewpoint Depression Visibility Wind Speed Wind Dir Waves Ship Positions

Nain Banker

Last reported at 2018-Aug-14 21:51 UTC. Time now 2018-Aug-17 11:42 UTC.
Position N 64°48' W 053°32'.

Length 30 m.

Type: Wing in ground effect craft. MMSI: 316004050.

Date/timePositionNaut miles runAvg speedWind from/ knotsBaromVisibWave heightAir tempDewpointWater temp
2018-Aug-14 21:51N 64°48' W 053°32'3 9.4
2018-Aug-14 21:29N 64°45' W 053°27'8 9.8
2018-Aug-14 20:40N 64°39' W 053°16'2 9.7
2018-Aug-14 20:30N 64°37' W 053°14'510.1
2018-Aug-14 20:00N 64°33' W 053°07'510.0
2018-Aug-14 19:31N 64°29' W 053°01'5 9.7
2018-Aug-14 19:00N 64°25' W 052°54'510.0
2018-Aug-14 18:29N 64°21' W 052°47'510.2
2018-Aug-14 17:59N 64°17' W 052°40'510.0
2018-Aug-14 17:30N 64°13' W 052°34'5 9.9
2018-Aug-14 17:00N 64°09' W 052°27'510.1
2018-Aug-14 16:30N 64°05' W 052°21'5 9.3
2018-Aug-14 16:00N 64°03' W 052°11'611.7
2018-Aug-14 15:31N 64°06' W 051°59'611.2
2018-Aug-14 15:00N 64°09' W 051°47'2 4.6
2018-Aug-14 14:29N 64°10' W 051°43'0 0.0
2018-Aug-14 14:00N 64°10' W 051°43'0 0.0
2018-Aug-14 13:30N 64°10' W 051°43'0 0.0
2018-Aug-14 13:00N 64°10' W 051°43'0 0.0
2018-Aug-14 12:30N 64°10' W 051°43'0 0.0
2018-Aug-14 12:00N 64°10' W 051°43'0 0.0
2018-Aug-14 11:30N 64°10' W 051°43'0 0.0
2018-Aug-14 10:59N 64°10' W 051°43'0 0.0
2018-Aug-14 10:30N 64°10' W 051°43'0 0.0
2018-Aug-14 10:00N 64°10' W 051°43'0 0.0
2018-Aug-14 09:31N 64°10' W 051°43'0 0.0
2018-Aug-14 09:00N 64°10' W 051°43'0 0.0
2018-Aug-14 08:30N 64°10' W 051°43'0 0.0
2018-Aug-14 08:00N 64°10' W 051°43'0 0.0
2018-Aug-14 07:30N 64°10' W 051°43'0 0.0
2018-Aug-14 07:01N 64°10' W 051°43'0 0.0
2018-Aug-14 06:31N 64°10' W 051°43'0 0.0
2018-Aug-14 06:00N 64°10' W 051°43'0 0.0
2018-Aug-14 05:30N 64°10' W 051°43'0 0.0
2018-Aug-14 05:00N 64°10' W 051°43'0 0.0
2018-Aug-14 04:30N 64°10' W 051°43'0 0.0
2018-Aug-14 04:00N 64°10' W 051°43'0 0.0
2018-Aug-14 03:29N 64°10' W 051°43'0 0.0
2018-Aug-14 03:00N 64°10' W 051°43'0 0.0
2018-Aug-14 02:30N 64°10' W 051°43'0 0.0
2018-Aug-14 02:00N 64°10' W 051°43'0 0.0
2018-Aug-14 01:30N 64°10' W 051°43'0 0.0
2018-Aug-14 00:59N 64°10' W 051°43'0 0.0
2018-Aug-14 00:30N 64°10' W 051°43'0 0.0
2018-Aug-14 00:00N 64°10' W 051°43'0 0.0
2018-Aug-13 23:30N 64°10' W 051°43'0 0.0
2018-Aug-13 23:01N 64°10' W 051°43'0 0.0
2018-Aug-13 22:30N 64°10' W 051°43'0 0.0
2018-Aug-13 22:00N 64°10' W 051°43'0 0.0
2018-Aug-13 21:30N 64°10' W 051°43'0 0.0
2018-Aug-13 21:00N 64°10' W 051°43'0 0.0
2018-Aug-13 20:29N 64°10' W 051°43'0 0.0
2018-Aug-13 19:59N 64°10' W 051°43'0 0.0
2018-Aug-13 19:30N 64°10' W 051°43'0 0.0
2018-Aug-13 19:00N 64°10' W 051°43'0 0.0
2018-Aug-13 18:30N 64°10' W 051°43'0 0.0
2018-Aug-13 18:01N 64°10' W 051°43'0 0.0
2018-Aug-13 17:31N 64°10' W 051°43'0 0.0
2018-Aug-13 17:00N 64°10' W 051°43'0 0.0
2018-Aug-13 16:30N 64°10' W 051°43'0 0.0
2018-Aug-13 16:01N 64°10' W 051°43'0 0.0
2018-Aug-13 15:30N 64°10' W 051°43'0 0.0
2018-Aug-13 15:00N 64°10' W 051°43'0 0.0
2018-Aug-13 14:31N 64°10' W 051°43'0 0.0
2018-Aug-13 14:00N 64°10' W 051°43'0 0.0
2018-Aug-13 13:30N 64°10' W 051°43'0 0.0
2018-Aug-13 13:01N 64°10' W 051°43'0 0.0
2018-Aug-13 12:30N 64°10' W 051°43'0 0.0
2018-Aug-13 11:59N 64°10' W 051°43'0 0.0
2018-Aug-13 11:30N 64°10' W 051°43'0 0.0
2018-Aug-13 11:01N 64°10' W 051°43'0 0.0
2018-Aug-13 10:31N 64°10' W 051°43'0 0.0
2018-Aug-13 10:00N 64°10' W 051°43'0 0.0
2018-Aug-13 09:30N 64°10' W 051°43'0 0.0
2018-Aug-13 09:00N 64°10' W 051°43'0 0.0
2018-Aug-13 08:30N 64°10' W 051°43'0 0.0
2018-Aug-13 08:00N 64°10' W 051°43'0 0.0
2018-Aug-13 07:30N 64°10' W 051°43'0 0.0
2018-Aug-13 07:00N 64°10' W 051°43'0 0.0
2018-Aug-13 06:29N 64°10' W 051°43'0 0.0
2018-Aug-13 06:00N 64°10' W 051°43'0 0.0
2018-Aug-13 05:30N 64°10' W 051°43'0 0.0
2018-Aug-13 05:00N 64°10' W 051°43'0 0.0
2018-Aug-13 04:30N 64°10' W 051°43'0 0.0
2018-Aug-13 04:00N 64°10' W 051°43'0 0.0
2018-Aug-13 03:30N 64°10' W 051°43'0 0.0
2018-Aug-13 03:00N 64°10' W 051°43'0 0.0
2018-Aug-13 02:30N 64°10' W 051°43'0 0.0
2018-Aug-13 02:00N 64°10' W 051°43'0 0.0
2018-Aug-13 01:30N 64°10' W 051°43'0 0.0
2018-Aug-13 00:59N 64°10' W 051°43'0 0.0
2018-Aug-13 00:30N 64°10' W 051°43'0 0.0
2018-Aug-12 23:59N 64°10' W 051°43'0 0.0
2018-Aug-12 23:30N 64°10' W 051°43'0 0.0
2018-Aug-12 22:59N 64°10' W 051°43'0 0.0
2018-Aug-12 22:31N 64°10' W 051°43'0 0.0
2018-Aug-12 22:00N 64°10' W 051°43'0 0.0
2018-Aug-12 21:30N 64°10' W 051°43'0 0.0
2018-Aug-12 21:00N 64°10' W 051°43'0 0.0
2018-Aug-12 20:30N 64°10' W 051°43'0 0.0
2018-Aug-12 20:01N 64°10' W 051°43'0 0.0
2018-Aug-12 19:30N 64°10' W 051°43'0 0.0
2018-Aug-12 19:00N 64°10' W 051°43'0 0.0
2018-Aug-12 18:30N 64°10' W 051°43'0 0.0
2018-Aug-12 18:00N 64°10' W 051°43'0 0.0
2018-Aug-12 17:30N 64°10' W 051°43'0 0.0
2018-Aug-12 17:00N 64°10' W 051°43'0 0.0
2018-Aug-12 16:30N 64°10' W 051°43'0 0.0
2018-Aug-12 16:00N 64°10' W 051°43'0 0.0
2018-Aug-12 15:30N 64°10' W 051°43'0 0.0
2018-Aug-12 14:59N 64°10' W 051°43'0 0.0
2018-Aug-12 14:30N 64°10' W 051°43'0 0.0
2018-Aug-12 14:00N 64°10' W 051°43'0 0.0
2018-Aug-12 13:30N 64°10' W 051°43'0 0.0
2018-Aug-12 12:59N 64°10' W 051°43'0 0.0
2018-Aug-12 12:30N 64°10' W 051°43'0 0.0
2018-Aug-12 11:59N 64°10' W 051°43'0 0.0
2018-Aug-12 11:29N 64°10' W 051°43'0 0.0
2018-Aug-12 10:59N 64°10' W 051°43'0 0.0
2018-Aug-12 10:30N 64°10' W 051°43'0 0.0
2018-Aug-12 10:00N 64°10' W 051°43'0 0.0
2018-Aug-12 09:30N 64°10' W 051°43'0 0.0
2018-Aug-12 09:00N 64°10' W 051°43'0 0.0
2018-Aug-12 08:30N 64°10' W 051°43'0 0.0
2018-Aug-12 08:00N 64°10' W 051°43'0 0.0
2018-Aug-12 07:30N 64°10' W 051°43'0 0.0
2018-Aug-12 07:00N 64°10' W 051°43'0 0.0
2018-Aug-12 06:30N 64°10' W 051°43'0 0.0
2018-Aug-12 06:00N 64°10' W 051°43'0 0.0
2018-Aug-12 05:30N 64°10' W 051°43'0 0.0
2018-Aug-12 05:00N 64°10' W 051°43'0 0.0
2018-Aug-12 04:30N 64°10' W 051°43'0 0.0
2018-Aug-12 04:00N 64°10' W 051°43'0 0.0
2018-Aug-12 03:30N 64°10' W 051°43'0 0.0
2018-Aug-12 03:00N 64°10' W 051°43'0 0.0
2018-Aug-12 02:30N 64°10' W 051°43'0 0.0
2018-Aug-12 02:00N 64°10' W 051°43'0 0.0
2018-Aug-12 01:29N 64°10' W 051°43'0 0.0
2018-Aug-12 01:00N 64°10' W 051°43'0 0.0
2018-Aug-12 00:30N 64°10' W 051°43'0 0.0
2018-Aug-12 00:00N 64°10' W 051°43'0 0.0
2018-Aug-11 23:30N 64°10' W 051°43'0 0.0
2018-Aug-11 23:00N 64°10' W 051°43'0 0.0
2018-Aug-11 22:30N 64°10' W 051°43'0 0.0
2018-Aug-11 22:00N 64°10' W 051°43'0 0.0
2018-Aug-11 21:30N 64°10' W 051°43'0 0.0
2018-Aug-11 21:00N 64°10' W 051°43'0 0.0
2018-Aug-11 20:30N 64°10' W 051°43'0 0.0
2018-Aug-11 19:59N 64°10' W 051°43'0 0.0
2018-Aug-11 19:30N 64°10' W 051°43'0 0.0
2018-Aug-11 19:00N 64°10' W 051°43'0 0.0
2018-Aug-11 18:30N 64°10' W 051°43'0 0.0
2018-Aug-11 18:00N 64°10' W 051°43'0 0.0
2018-Aug-11 17:31N 64°10' W 051°43'0 0.0
2018-Aug-11 17:00N 64°10' W 051°43'0 0.0
2018-Aug-11 16:30N 64°10' W 051°43'0 0.0
2018-Aug-11 16:00N 64°10' W 051°43'0 0.0
2018-Aug-11 15:30N 64°10' W 051°43'0 0.0
2018-Aug-11 15:00N 64°10' W 051°43'0 0.0
2018-Aug-11 14:30N 64°10' W 051°43'0 0.0
2018-Aug-11 14:00N 64°10' W 051°43'0 0.0
2018-Aug-11 13:30N 64°10' W 051°43'0 0.0
2018-Aug-11 13:00N 64°10' W 051°43'0 0.0
2018-Aug-11 12:30N 64°10' W 051°43'0 0.0
2018-Aug-11 12:00N 64°10' W 051°43'0 0.0
2018-Aug-11 11:31N 64°10' W 051°43'0 0.0
2018-Aug-11 11:00N 64°10' W 051°43'0 0.0
2018-Aug-11 10:30N 64°10' W 051°43'0 0.0
2018-Aug-11 10:00N 64°10' W 051°43'0 0.0
2018-Aug-11 09:30N 64°10' W 051°43'0 0.0
2018-Aug-11 09:00N 64°10' W 051°43'0 0.0
2018-Aug-11 08:30N 64°10' W 051°43'0 0.0
2018-Aug-11 08:00N 64°10' W 051°43'0 0.0
2018-Aug-11 07:30N 64°10' W 051°43'0 0.0
2018-Aug-11 07:00N 64°10' W 051°43'0 0.0
2018-Aug-11 06:30N 64°10' W 051°43'0 0.0
2018-Aug-11 06:00N 64°10' W 051°43'0 0.0
2018-Aug-11 05:30N 64°10' W 051°43'0 0.0
2018-Aug-11 04:59N 64°10' W 051°43'0 0.0
2018-Aug-11 04:30N 64°10' W 051°43'0 0.0
2018-Aug-11 04:00N 64°10' W 051°43'0 0.0
2018-Aug-11 03:29N 64°10' W 051°43'0 0.0
2018-Aug-11 03:00N 64°10' W 051°43'0 0.0
2018-Aug-11 02:30N 64°10' W 051°43'0 0.0
2018-Aug-11 02:00N 64°10' W 051°43'0 0.0
2018-Aug-11 01:30N 64°10' W 051°43'0 0.0
2018-Aug-11 01:00N 64°10' W 051°43'0 0.0
2018-Aug-11 00:30N 64°10' W 051°43'0 0.0
2018-Aug-11 00:00N 64°10' W 051°43'0 0.0
2018-Aug-10 23:30N 64°10' W 051°43'0 0.0
2018-Aug-10 23:00N 64°10' W 051°43'0 0.0
2018-Aug-10 22:30N 64°10' W 051°43'0 0.0
2018-Aug-10 22:00N 64°10' W 051°43'0 0.0
2018-Aug-10 21:30N 64°10' W 051°43'0 0.0
2018-Aug-10 20:59N 64°10' W 051°43'0 0.0
2018-Aug-10 20:30N 64°10' W 051°43'3 5.8
2018-Aug-10 20:00N 64°09' W 051°49'5 9.8
2018-Aug-10 19:30N 64°06' W 051°58'610.7
2018-Aug-10 18:59N 64°03' W 052°10'510.4
2018-Aug-10 18:30N 64°02' W 052°21'5 9.8
2018-Aug-10 18:00N 64°01' W 052°32'5 9.7
2018-Aug-10 17:30N 64°00' W 052°43'5 9.7
2018-Aug-10 17:00N 63°59' W 052°53'5 9.6
2018-Aug-10 16:30N 63°58' W 053°04'5 9.2
2018-Aug-10 16:00N 63°57' W 053°14'5 9.1
2018-Aug-10 15:30N 63°56' W 053°24'5 9.0
2018-Aug-10 15:00N 63°55' W 053°35'6 9.0
2018-Aug-10 14:22N 63°54' W 053°47'5 9.1
2018-Aug-10 13:49N 63°53' W 053°58'  
Track history (hours):
 
Tides and Currents Weather Stations Pressure Air Temp Water Temp Dewpoint Dewpoint Depression Visibility Wind Speed Wind Dir Waves Ship Positions

Nain Banker

Last reported at 2018-Aug-14 21:51 UTC. Time now 2018-Aug-17 11:42 UTC.
Position N 64°48' W 053°32'.

Length 30 m.

Type: Wing in ground effect craft. MMSI: 316004050.

Date/timePositionNaut miles runAvg speedWind from/ knotsBaromVisibWave heightAir tempDewpointWater temp
2018-Aug-14 21:51N 64°48' W 053°32'3 9.4
2018-Aug-14 21:29N 64°45' W 053°27'8 9.8
2018-Aug-14 20:40N 64°39' W 053°16'2 9.7
2018-Aug-14 20:30N 64°37' W 053°14'510.1
2018-Aug-14 20:00N 64°33' W 053°07'510.0
2018-Aug-14 19:31N 64°29' W 053°01'5 9.7
2018-Aug-14 19:00N 64°25' W 052°54'510.0
2018-Aug-14 18:29N 64°21' W 052°47'510.2
2018-Aug-14 17:59N 64°17' W 052°40'510.0
2018-Aug-14 17:30N 64°13' W 052°34'5 9.9
2018-Aug-14 17:00N 64°09' W 052°27'510.1
2018-Aug-14 16:30N 64°05' W 052°21'5 9.3
2018-Aug-14 16:00N 64°03' W 052°11'611.7
2018-Aug-14 15:31N 64°06' W 051°59'611.2
2018-Aug-14 15:00N 64°09' W 051°47'2 4.6
2018-Aug-14 14:29N 64°10' W 051°43'0 0.0
2018-Aug-14 14:00N 64°10' W 051°43'0 0.0
2018-Aug-14 13:30N 64°10' W 051°43'0 0.0
2018-Aug-14 13:00N 64°10' W 051°43'0 0.0
2018-Aug-14 12:30N 64°10' W 051°43'0 0.0
2018-Aug-14 12:00N 64°10' W 051°43'0 0.0
2018-Aug-14 11:30N 64°10' W 051°43'0 0.0
2018-Aug-14 10:59N 64°10' W 051°43'0 0.0
2018-Aug-14 10:30N 64°10' W 051°43'0 0.0
2018-Aug-14 10:00N 64°10' W 051°43'0 0.0
2018-Aug-14 09:31N 64°10' W 051°43'0 0.0
2018-Aug-14 09:00N 64°10' W 051°43'0 0.0
2018-Aug-14 08:30N 64°10' W 051°43'0 0.0
2018-Aug-14 08:00N 64°10' W 051°43'0 0.0
2018-Aug-14 07:30N 64°10' W 051°43'0 0.0
2018-Aug-14 07:01N 64°10' W 051°43'0 0.0
2018-Aug-14 06:31N 64°10' W 051°43'0 0.0
2018-Aug-14 06:00N 64°10' W 051°43'0 0.0
2018-Aug-14 05:30N 64°10' W 051°43'0 0.0
2018-Aug-14 05:00N 64°10' W 051°43'0 0.0
2018-Aug-14 04:30N 64°10' W 051°43'0 0.0
2018-Aug-14 04:00N 64°10' W 051°43'0 0.0
2018-Aug-14 03:29N 64°10' W 051°43'0 0.0
2018-Aug-14 03:00N 64°10' W 051°43'0 0.0
2018-Aug-14 02:30N 64°10' W 051°43'0 0.0
2018-Aug-14 02:00N 64°10' W 051°43'0 0.0
2018-Aug-14 01:30N 64°10' W 051°43'0 0.0
2018-Aug-14 00:59N 64°10' W 051°43'0 0.0
2018-Aug-14 00:30N 64°10' W 051°43'0 0.0
2018-Aug-14 00:00N 64°10' W 051°43'0 0.0
2018-Aug-13 23:30N 64°10' W 051°43'0 0.0
2018-Aug-13 23:01N 64°10' W 051°43'0 0.0
2018-Aug-13 22:30N 64°10' W 051°43'0 0.0
2018-Aug-13 22:00N 64°10' W 051°43'0 0.0
2018-Aug-13 21:30N 64°10' W 051°43'0 0.0
2018-Aug-13 21:00N 64°10' W 051°43'0 0.0
2018-Aug-13 20:29N 64°10' W 051°43'0 0.0
2018-Aug-13 19:59N 64°10' W 051°43'0 0.0
2018-Aug-13 19:30N 64°10' W 051°43'0 0.0
2018-Aug-13 19:00N 64°10' W 051°43'0 0.0
2018-Aug-13 18:30N 64°10' W 051°43'0 0.0
2018-Aug-13 18:01N 64°10' W 051°43'0 0.0
2018-Aug-13 17:31N 64°10' W 051°43'0 0.0
2018-Aug-13 17:00N 64°10' W 051°43'0 0.0
2018-Aug-13 16:30N 64°10' W 051°43'0 0.0
2018-Aug-13 16:01N 64°10' W 051°43'0 0.0
2018-Aug-13 15:30N 64°10' W 051°43'0 0.0
2018-Aug-13 15:00N 64°10' W 051°43'0 0.0
2018-Aug-13 14:31N 64°10' W 051°43'0 0.0
2018-Aug-13 14:00N 64°10' W 051°43'0 0.0
2018-Aug-13 13:30N 64°10' W 051°43'0 0.0
2018-Aug-13 13:01N 64°10' W 051°43'0 0.0
2018-Aug-13 12:30N 64°10' W 051°43'0 0.0
2018-Aug-13 11:59N 64°10' W 051°43'0 0.0
2018-Aug-13 11:30N 64°10' W 051°43'0 0.0
2018-Aug-13 11:01N 64°10' W 051°43'0 0.0
2018-Aug-13 10:31N 64°10' W 051°43'0 0.0
2018-Aug-13 10:00N 64°10' W 051°43'0 0.0
2018-Aug-13 09:30N 64°10' W 051°43'0 0.0
2018-Aug-13 09:00N 64°10' W 051°43'0 0.0
2018-Aug-13 08:30N 64°10' W 051°43'0 0.0
2018-Aug-13 08:00N 64°10' W 051°43'0 0.0
2018-Aug-13 07:30N 64°10' W 051°43'0 0.0
2018-Aug-13 07:00N 64°10' W 051°43'0 0.0
2018-Aug-13 06:29N 64°10' W 051°43'0 0.0
2018-Aug-13 06:00N 64°10' W 051°43'0 0.0
2018-Aug-13 05:30N 64°10' W 051°43'0 0.0
2018-Aug-13 05:00N 64°10' W 051°43'0 0.0
2018-Aug-13 04:30N 64°10' W 051°43'0 0.0
2018-Aug-13 04:00N 64°10' W 051°43'0 0.0
2018-Aug-13 03:30N 64°10' W 051°43'0 0.0
2018-Aug-13 03:00N 64°10' W 051°43'0 0.0
2018-Aug-13 02:30N 64°10' W 051°43'0 0.0
2018-Aug-13 02:00N 64°10' W 051°43'0 0.0
2018-Aug-13 01:30N 64°10' W 051°43'0 0.0
2018-Aug-13 00:59N 64°10' W 051°43'0 0.0
2018-Aug-13 00:30N 64°10' W 051°43'0 0.0
2018-Aug-12 23:59N 64°10' W 051°43'0 0.0
2018-Aug-12 23:30N 64°10' W 051°43'0 0.0
2018-Aug-12 22:59N 64°10' W 051°43'0 0.0
2018-Aug-12 22:31N 64°10' W 051°43'0 0.0
2018-Aug-12 22:00N 64°10' W 051°43'0 0.0
2018-Aug-12 21:30N 64°10' W 051°43'0 0.0
2018-Aug-12 21:00N 64°10' W 051°43'0 0.0
2018-Aug-12 20:30N 64°10' W 051°43'0 0.0
2018-Aug-12 20:01N 64°10' W 051°43'0 0.0
2018-Aug-12 19:30N 64°10' W 051°43'0 0.0
2018-Aug-12 19:00N 64°10' W 051°43'0 0.0
2018-Aug-12 18:30N 64°10' W 051°43'0 0.0
2018-Aug-12 18:00N 64°10' W 051°43'0 0.0
2018-Aug-12 17:30N 64°10' W 051°43'0 0.0
2018-Aug-12 17:00N 64°10' W 051°43'0 0.0
2018-Aug-12 16:30N 64°10' W 051°43'0 0.0
2018-Aug-12 16:00N 64°10' W 051°43'0 0.0
2018-Aug-12 15:30N 64°10' W 051°43'0 0.0
2018-Aug-12 14:59N 64°10' W 051°43'0 0.0
2018-Aug-12 14:30N 64°10' W 051°43'0 0.0
2018-Aug-12 14:00N 64°10' W 051°43'0 0.0
2018-Aug-12 13:30N 64°10' W 051°43'0 0.0
2018-Aug-12 12:59N 64°10' W 051°43'0 0.0
2018-Aug-12 12:30N 64°10' W 051°43'0 0.0
2018-Aug-12 11:59N 64°10' W 051°43'0 0.0
2018-Aug-12 11:29N 64°10' W 051°43'0 0.0
2018-Aug-12 10:59N 64°10' W 051°43'0 0.0
2018-Aug-12 10:30N 64°10' W 051°43'0 0.0
2018-Aug-12 10:00N 64°10' W 051°43'0 0.0
2018-Aug-12 09:30N 64°10' W 051°43'0 0.0
2018-Aug-12 09:00N 64°10' W 051°43'0 0.0
2018-Aug-12 08:30N 64°10' W 051°43'0 0.0
2018-Aug-12 08:00N 64°10' W 051°43'0 0.0
2018-Aug-12 07:30N 64°10' W 051°43'0 0.0
2018-Aug-12 07:00N 64°10' W 051°43'0 0.0
2018-Aug-12 06:30N 64°10' W 051°43'0 0.0
2018-Aug-12 06:00N 64°10' W 051°43'0 0.0
2018-Aug-12 05:30N 64°10' W 051°43'0 0.0
2018-Aug-12 05:00N 64°10' W 051°43'0 0.0
2018-Aug-12 04:30N 64°10' W 051°43'0 0.0
2018-Aug-12 04:00N 64°10' W 051°43'0 0.0
2018-Aug-12 03:30N 64°10' W 051°43'0 0.0
2018-Aug-12 03:00N 64°10' W 051°43'0 0.0
2018-Aug-12 02:30N 64°10' W 051°43'0 0.0
2018-Aug-12 02:00N 64°10' W 051°43'0 0.0
2018-Aug-12 01:29N 64°10' W 051°43'0 0.0
2018-Aug-12 01:00N 64°10' W 051°43'0 0.0
2018-Aug-12 00:30N 64°10' W 051°43'0 0.0
2018-Aug-12 00:00N 64°10' W 051°43'0 0.0
2018-Aug-11 23:30N 64°10' W 051°43'0 0.0
2018-Aug-11 23:00N 64°10' W 051°43'0 0.0
2018-Aug-11 22:30N 64°10' W 051°43'0 0.0
2018-Aug-11 22:00N 64°10' W 051°43'0 0.0
2018-Aug-11 21:30N 64°10' W 051°43'0 0.0
2018-Aug-11 21:00N 64°10' W 051°43'0 0.0
2018-Aug-11 20:30N 64°10' W 051°43'0 0.0
2018-Aug-11 19:59N 64°10' W 051°43'0 0.0
2018-Aug-11 19:30N 64°10' W 051°43'0 0.0
2018-Aug-11 19:00N 64°10' W 051°43'0 0.0
2018-Aug-11 18:30N 64°10' W 051°43'0 0.0
2018-Aug-11 18:00N 64°10' W 051°43'0 0.0
2018-Aug-11 17:31N 64°10' W 051°43'0 0.0
2018-Aug-11 17:00N 64°10' W 051°43'0 0.0
2018-Aug-11 16:30N 64°10' W 051°43'0 0.0
2018-Aug-11 16:00N 64°10' W 051°43'0 0.0
2018-Aug-11 15:30N 64°10' W 051°43'0 0.0
2018-Aug-11 15:00N 64°10' W 051°43'0 0.0
2018-Aug-11 14:30N 64°10' W 051°43'0 0.0
2018-Aug-11 14:00N 64°10' W 051°43'0 0.0
2018-Aug-11 13:30N 64°10' W 051°43'0 0.0
2018-Aug-11 13:00N 64°10' W 051°43'0 0.0
2018-Aug-11 12:30N 64°10' W 051°43'0 0.0
2018-Aug-11 12:00N 64°10' W 051°43'0 0.0
2018-Aug-11 11:31N 64°10' W 051°43'0 0.0
2018-Aug-11 11:00N 64°10' W 051°43'0 0.0
2018-Aug-11 10:30N 64°10' W 051°43'0 0.0
2018-Aug-11 10:00N 64°10' W 051°43'0 0.0
2018-Aug-11 09:30N 64°10' W 051°43'0 0.0
2018-Aug-11 09:00N 64°10' W 051°43'0 0.0
2018-Aug-11 08:30N 64°10' W 051°43'0 0.0
2018-Aug-11 08:00N 64°10' W 051°43'0 0.0
2018-Aug-11 07:30N 64°10' W 051°43'0 0.0
2018-Aug-11 07:00N 64°10' W 051°43'0 0.0
2018-Aug-11 06:30N 64°10' W 051°43'0 0.0
2018-Aug-11 06:00N 64°10' W 051°43'0 0.0
2018-Aug-11 05:30N 64°10' W 051°43'0 0.0
2018-Aug-11 04:59N 64°10' W 051°43'0 0.0
2018-Aug-11 04:30N 64°10' W 051°43'0 0.0
2018-Aug-11 04:00N 64°10' W 051°43'0 0.0
2018-Aug-11 03:29N 64°10' W 051°43'0 0.0
2018-Aug-11 03:00N 64°10' W 051°43'0 0.0
2018-Aug-11 02:30N 64°10' W 051°43'0 0.0
2018-Aug-11 02:00N 64°10' W 051°43'0 0.0
2018-Aug-11 01:30N 64°10' W 051°43'0 0.0
2018-Aug-11 01:00N 64°10' W 051°43'0 0.0
2018-Aug-11 00:30N 64°10' W 051°43'0 0.0
2018-Aug-11 00:00N 64°10' W 051°43'0 0.0
2018-Aug-10 23:30N 64°10' W 051°43'0 0.0
2018-Aug-10 23:00N 64°10' W 051°43'0 0.0
2018-Aug-10 22:30N 64°10' W 051°43'0 0.0
2018-Aug-10 22:00N 64°10' W 051°43'0 0.0
2018-Aug-10 21:30N 64°10' W 051°43'0 0.0
2018-Aug-10 20:59N 64°10' W 051°43'0 0.0
2018-Aug-10 20:30N 64°10' W 051°43'3 5.8
2018-Aug-10 20:00N 64°09' W 051°49'5 9.8
2018-Aug-10 19:30N 64°06' W 051°58'610.7
2018-Aug-10 18:59N 64°03' W 052°10'510.4
2018-Aug-10 18:30N 64°02' W 052°21'5 9.8
2018-Aug-10 18:00N 64°01' W 052°32'5 9.7
2018-Aug-10 17:30N 64°00' W 052°43'5 9.7
2018-Aug-10 17:00N 63°59' W 052°53'5 9.6
2018-Aug-10 16:30N 63°58' W 053°04'5 9.2
2018-Aug-10 16:00N 63°57' W 053°14'5 9.1
2018-Aug-10 15:30N 63°56' W 053°24'5 9.0
2018-Aug-10 15:00N 63°55' W 053°35'6 9.0
2018-Aug-10 14:22N 63°54' W 053°47'5 9.1
2018-Aug-10 13:49N 63°53' W 053°58'  

Dump ship's entire track history